sensor_id;sensor_type;location;lat;lon;timestamp;pressure;altitude;pressure_sealevel;temperature;humidity
38163;BME280;23977;53.078;18.248;2023-11-21T00:01:02;100697.47;;;1.63;100.00
38163;BME280;23977;53.078;18.248;2023-11-21T00:03:40;100569.00;;;0.72;100.00
38163;BME280;23977;53.078;18.248;2023-11-21T00:06:06;100591.47;;;1.02;100.00
38163;BME280;23977;53.078;18.248;2023-11-21T00:08:35;100698.59;;;1.72;100.00
38163;BME280;23977;53.078;18.248;2023-11-21T00:11:01;100697.66;;;1.60;100.00
38163;BME280;23977;53.078;18.248;2023-11-21T00:13:27;100704.16;;;1.67;100.00
38163;BME280;23977;53.078;18.248;2023-11-21T00:15:52;100650.63;;;1.44;100.00
38163;BME280;23977;53.078;18.248;2023-11-21T00:18:18;100559.03;;;0.77;100.00
38163;BME280;23977;53.078;18.248;2023-11-21T00:20:44;100541.94;;;0.71;100.00
38163;BME280;23977;53.078;18.248;2023-11-21T00:23:11;100722.41;;;1.69;100.00
38163;BME280;23977;53.078;18.248;2023-11-21T00:25:37;100739.22;;;1.79;100.00
38163;BME280;23977;53.078;18.248;2023-11-21T00:28:03;100668.38;;;1.41;100.00
38163;BME280;23977;53.078;18.248;2023-11-21T00:30:28;100648.59;;;1.09;100.00
38163;BME280;23977;53.078;18.248;2023-11-21T00:32:55;100625.63;;;1.00;100.00
38163;BME280;23977;53.078;18.248;2023-11-21T00:35:21;100587.44;;;0.83;100.00
38163;BME280;23977;53.078;18.248;2023-11-21T00:37:47;100551.44;;;0.47;100.00
38163;BME280;23977;53.078;18.248;2023-11-21T00:40:15;100735.41;;;1.58;100.00
38163;BME280;23977;53.078;18.248;2023-11-21T00:42:41;100590.56;;;0.76;100.00
38163;BME280;23977;53.078;18.248;2023-11-21T00:45:07;100508.72;;;0.19;100.00
38163;BME280;23977;53.078;18.248;2023-11-21T00:47:34;100551.38;;;0.34;100.00
38163;BME280;23977;53.078;18.248;2023-11-21T00:49:59;100640.69;;;0.84;100.00
38163;BME280;23977;53.078;18.248;2023-11-21T00:52:25;100625.16;;;0.81;100.00
38163;BME280;23977;53.078;18.248;2023-11-21T00:54:51;100641.16;;;1.03;100.00
38163;BME280;23977;53.078;18.248;2023-11-21T00:57:17;100665.69;;;1.02;100.00
38163;BME280;23977;53.078;18.248;2023-11-21T00:59:43;100632.63;;;0.87;100.00
38163;BME280;23977;53.078;18.248;2023-11-21T01:02:08;100750.56;;;1.67;100.00
38163;BME280;23977;53.078;18.248;2023-11-21T01:04:36;100639.47;;;1.02;100.00
38163;BME280;23977;53.078;18.248;2023-11-21T01:07:01;100653.69;;;0.98;100.00
38163;BME280;23977;53.078;18.248;2023-11-21T01:09:27;100706.19;;;1.24;100.00
38163;BME280;23977;53.078;18.248;2023-11-21T01:11:53;100678.34;;;0.96;100.00
38163;BME280;23977;53.078;18.248;2023-11-21T01:14:19;100755.94;;;1.38;100.00
38163;BME280;23977;53.078;18.248;2023-11-21T01:16:45;100683.09;;;0.76;100.00
38163;BME280;23977;53.078;18.248;2023-11-21T01:19:11;100650.75;;;0.63;100.00
38163;BME280;23977;53.078;18.248;2023-11-21T01:21:36;100553.38;;;-0.11;100.00
38163;BME280;23977;53.078;18.248;2023-11-21T01:24:02;100656.38;;;0.57;100.00
38163;BME280;23977;53.078;18.248;2023-11-21T01:26:29;100619.53;;;0.32;100.00
38163;BME280;23977;53.078;18.248;2023-11-21T01:28:54;100672.34;;;0.66;100.00
38163;BME280;23977;53.078;18.248;2023-11-21T01:31:20;100732.31;;;0.98;100.00
38163;BME280;23977;53.078;18.248;2023-11-21T01:33:46;100756.25;;;1.06;100.00
38163;BME280;23977;53.078;18.248;2023-11-21T01:36:12;100608.34;;;0.16;100.00
38163;BME280;23977;53.078;18.248;2023-11-21T01:38:37;100635.41;;;0.44;100.00
38163;BME280;23977;53.078;18.248;2023-11-21T01:41:04;100776.69;;;1.41;100.00
38163;BME280;23977;53.078;18.248;2023-11-21T01:43:30;100764.25;;;1.18;100.00
38163;BME280;23977;53.078;18.248;2023-11-21T01:45:57;100747.59;;;1.19;100.00
38163;BME280;23977;53.078;18.248;2023-11-21T01:48:24;100785.00;;;1.35;100.00
38163;BME280;23977;53.078;18.248;2023-11-21T01:50:51;100685.00;;;0.60;100.00
38163;BME280;23977;53.078;18.248;2023-11-21T01:53:17;100669.72;;;0.66;100.00
38163;BME280;23977;53.078;18.248;2023-11-21T01:55:45;100649.22;;;0.46;100.00
38163;BME280;23977;53.078;18.248;2023-11-21T01:58:10;100770.38;;;1.31;100.00
38163;BME280;23977;53.078;18.248;2023-11-21T02:00:38;100669.25;;;0.74;100.00
38163;BME280;23977;53.078;18.248;2023-11-21T02:03:03;100690.09;;;0.76;100.00
38163;BME280;23977;53.078;18.248;2023-11-21T02:05:30;100756.66;;;1.00;100.00
38163;BME280;23977;53.078;18.248;2023-11-21T02:07:55;100762.78;;;1.14;100.00
38163;BME280;23977;53.078;18.248;2023-11-21T02:10:22;100802.00;;;1.42;100.00
38163;BME280;23977;53.078;18.248;2023-11-21T02:12:48;100694.63;;;0.59;100.00
38163;BME280;23977;53.078;18.248;2023-11-21T02:15:16;100703.78;;;0.66;100.00
38163;BME280;23977;53.078;18.248;2023-11-21T02:17:50;100611.91;;;0.15;100.00
38163;BME280;23977;53.078;18.248;2023-11-21T02:20:17;100731.22;;;0.88;100.00
38163;BME280;23977;53.078;18.248;2023-11-21T02:22:51;100684.91;;;0.61;100.00
38163;BME280;23977;53.078;18.248;2023-11-21T02:25:24;100686.06;;;0.43;100.00
38163;BME280;23977;53.078;18.248;2023-11-21T02:27:50;100797.97;;;1.09;100.00
38163;BME280;23977;53.078;18.248;2023-11-21T02:30:17;100726.22;;;0.70;100.00
38163;BME280;23977;53.078;18.248;2023-11-21T02:32:42;100692.75;;;0.61;100.00
38163;BME280;23977;53.078;18.248;2023-11-21T02:35:09;100693.72;;;0.46;100.00
38163;BME280;23977;53.078;18.248;2023-11-21T02:37:35;100788.66;;;1.05;100.00
38163;BME280;23977;53.078;18.248;2023-11-21T02:40:01;100820.94;;;1.33;100.00
38163;BME280;23977;53.078;18.248;2023-11-21T02:42:29;100699.13;;;0.57;100.00
38163;BME280;23977;53.078;18.248;2023-11-21T02:44:57;100775.00;;;1.00;100.00
38163;BME280;23977;53.078;18.248;2023-11-21T02:47:23;100719.34;;;0.55;100.00
38163;BME280;23977;53.078;18.248;2023-11-21T02:49:49;100750.88;;;0.53;100.00
38163;BME280;23977;53.078;18.248;2023-11-21T02:52:15;100824.81;;;1.13;100.00
38163;BME280;23977;53.078;18.248;2023-11-21T02:54:40;100789.56;;;1.04;100.00
38163;BME280;23977;53.078;18.248;2023-11-21T02:57:06;100792.53;;;1.13;100.00
38163;BME280;23977;53.078;18.248;2023-11-21T02:59:33;100775.09;;;0.99;100.00
38163;BME280;23977;53.078;18.248;2023-11-21T03:01:58;100651.72;;;0.20;100.00
38163;BME280;23977;53.078;18.248;2023-11-21T03:04:24;100749.81;;;0.70;100.00
38163;BME280;23977;53.078;18.248;2023-11-21T03:06:49;100745.78;;;0.65;100.00
38163;BME280;23977;53.078;18.248;2023-11-21T03:09:15;100796.53;;;0.77;100.00
38163;BME280;23977;53.078;18.248;2023-11-21T03:11:41;100855.25;;;1.16;100.00
38163;BME280;23977;53.078;18.248;2023-11-21T03:14:07;100827.78;;;1.08;100.00
38163;BME280;23977;53.078;18.248;2023-11-21T03:16:34;100694.44;;;0.21;100.00
38163;BME280;23977;53.078;18.248;2023-11-21T03:19:00;100841.06;;;1.33;100.00
38163;BME280;23977;53.078;18.248;2023-11-21T03:21:26;100767.59;;;0.65;100.00
38163;BME280;23977;53.078;18.248;2023-11-21T03:23:52;100819.53;;;1.00;100.00
38163;BME280;23977;53.078;18.248;2023-11-21T03:26:18;100867.03;;;1.23;100.00
38163;BME280;23977;53.078;18.248;2023-11-21T03:28:44;100872.25;;;1.37;100.00
38163;BME280;23977;53.078;18.248;2023-11-21T03:31:09;100831.50;;;1.04;100.00
38163;BME280;23977;53.078;18.248;2023-11-21T03:33:35;100785.50;;;0.86;100.00
38163;BME280;23977;53.078;18.248;2023-11-21T03:36:01;100653.59;;;-0.11;100.00
38163;BME280;23977;53.078;18.248;2023-11-21T03:38:26;100693.00;;;0.29;100.00
38163;BME280;23977;53.078;18.248;2023-11-21T03:40:52;100872.97;;;1.54;100.00
38163;BME280;23977;53.078;18.248;2023-11-21T03:43:19;100762.03;;;0.84;100.00
38163;BME280;23977;53.078;18.248;2023-11-21T03:45:44;100793.00;;;0.63;100.00
38163;BME280;23977;53.078;18.248;2023-11-21T03:48:12;100830.47;;;1.07;100.00
38163;BME280;23977;53.078;18.248;2023-11-21T03:50:37;100804.00;;;0.97;100.00
38163;BME280;23977;53.078;18.248;2023-11-21T03:53:04;100740.00;;;0.60;100.00
38163;BME280;23977;53.078;18.248;2023-11-21T03:55:30;100864.38;;;1.37;100.00
38163;BME280;23977;53.078;18.248;2023-11-21T03:57:58;100777.84;;;0.83;100.00
38163;BME280;23977;53.078;18.248;2023-11-21T04:00:24;100753.16;;;0.72;100.00
38163;BME280;23977;53.078;18.248;2023-11-21T04:02:52;100790.59;;;0.60;100.00
38163;BME280;23977;53.078;18.248;2023-11-21T04:05:20;100761.81;;;0.60;100.00
38163;BME280;23977;53.078;18.248;2023-11-21T04:07:49;100762.72;;;0.59;100.00
38163;BME280;23977;53.078;18.248;2023-11-21T04:10:15;100729.00;;;0.26;100.00
38163;BME280;23977;53.078;18.248;2023-11-21T04:12:41;100763.28;;;0.50;100.00
38163;BME280;23977;53.078;18.248;2023-11-21T04:15:07;100777.31;;;0.49;100.00
38163;BME280;23977;53.078;18.248;2023-11-21T04:17:34;100845.56;;;1.03;99.73
38163;BME280;23977;53.078;18.248;2023-11-21T04:20:00;100869.28;;;1.15;99.51
38163;BME280;23977;53.078;18.248;2023-11-21T04:22:26;100883.16;;;1.17;99.80
38163;BME280;23977;53.078;18.248;2023-11-21T04:24:51;100845.56;;;0.89;99.78
38163;BME280;23977;53.078;18.248;2023-11-21T04:27:17;100853.44;;;1.03;99.19
38163;BME280;23977;53.078;18.248;2023-11-21T04:29:44;100787.63;;;0.52;99.33
38163;BME280;23977;53.078;18.248;2023-11-21T04:32:09;100861.28;;;1.03;99.50
38163;BME280;23977;53.078;18.248;2023-11-21T04:34:36;100904.31;;;1.14;99.58
38163;BME280;23977;53.078;18.248;2023-11-21T04:37:01;100819.97;;;0.65;99.71
38163;BME280;23977;53.078;18.248;2023-11-21T04:39:28;100866.53;;;0.74;99.74
38163;BME280;23977;53.078;18.248;2023-11-21T04:41:54;100928.47;;;1.04;100.00
38163;BME280;23977;53.078;18.248;2023-11-21T04:44:19;100884.50;;;0.95;99.34
38163;BME280;23977;53.078;18.248;2023-11-21T04:46:45;100802.56;;;0.35;96.51
38163;BME280;23977;53.078;18.248;2023-11-21T04:49:11;100883.75;;;0.79;97.65
38163;BME280;23977;53.078;18.248;2023-11-21T04:51:36;100828.75;;;0.50;97.87
38163;BME280;23977;53.078;18.248;2023-11-21T04:54:02;100786.13;;;0.19;98.50
38163;BME280;23977;53.078;18.248;2023-11-21T04:56:28;100796.59;;;0.19;98.42
38163;BME280;23977;53.078;18.248;2023-11-21T04:58:54;100919.03;;;0.87;98.66
38163;BME280;23977;53.078;18.248;2023-11-21T05:01:20;100948.09;;;1.11;98.09
38163;BME280;23977;53.078;18.248;2023-11-21T05:04:20;100957.66;;;1.27;97.95
38163;BME280;23977;53.078;18.248;2023-11-21T05:07:44;100723.47;;;-0.42;98.01
38163;BME280;23977;53.078;18.248;2023-11-21T05:10:16;100862.78;;;0.35;98.07
38163;BME280;23977;53.078;18.248;2023-11-21T05:12:45;100714.25;;;-0.63;97.33
38163;BME280;23977;53.078;18.248;2023-11-21T05:15:16;100736.13;;;-0.50;97.74
38163;BME280;23977;53.078;18.248;2023-11-21T05:17:48;100971.91;;;0.94;98.24
38163;BME280;23977;53.078;18.248;2023-11-21T05:20:34;100877.28;;;0.55;97.42
38163;BME280;23977;53.078;18.248;2023-11-21T05:23:01;100729.22;;;-0.51;97.19
38163;BME280;23977;53.078;18.248;2023-11-21T05:25:31;100969.47;;;1.05;97.32
38163;BME280;23977;53.078;18.248;2023-11-21T05:28:22;100852.84;;;0.26;98.23
38163;BME280;23977;53.078;18.248;2023-11-21T05:31:11;100727.31;;;-0.63;97.63
38163;BME280;23977;53.078;18.248;2023-11-21T05:33:55;100932.50;;;0.67;98.23
38163;BME280;23977;53.078;18.248;2023-11-21T05:36:35;100735.56;;;-0.41;97.37
38163;BME280;23977;53.078;18.248;2023-11-21T05:39:05;100920.59;;;0.61;98.11
38163;BME280;23977;53.078;18.248;2023-11-21T05:41:52;100904.75;;;0.34;98.70
38163;BME280;23977;53.078;18.248;2023-11-21T05:44:24;100911.34;;;0.70;97.40
38163;BME280;23977;53.078;18.248;2023-11-21T05:47:11;100898.97;;;0.43;98.25
38163;BME280;23977;53.078;18.248;2023-11-21T05:49:40;100980.13;;;0.88;98.06
38163;BME280;23977;53.078;18.248;2023-11-21T05:52:21;100895.38;;;0.30;97.80
38163;BME280;23977;53.078;18.248;2023-11-21T05:54:47;100836.72;;;-0.11;97.38
38163;BME280;23977;53.078;18.248;2023-11-21T05:57:15;100753.38;;;-0.78;96.55
38163;BME280;23977;53.078;18.248;2023-11-21T05:59:44;100789.19;;;-0.64;96.43
38163;BME280;23977;53.078;18.248;2023-11-21T06:02:16;100963.41;;;0.46;96.37
38163;BME280;23977;53.078;18.248;2023-11-21T06:04:42;100820.94;;;-0.40;96.01
38163;BME280;23977;53.078;18.248;2023-11-21T06:07:08;100869.41;;;-0.04;96.97
38163;BME280;23977;53.078;18.248;2023-11-21T06:09:36;100976.50;;;0.46;97.91
38163;BME280;23977;53.078;18.248;2023-11-21T06:12:03;100800.34;;;-0.76;97.21
38163;BME280;23977;53.078;18.248;2023-11-21T06:14:44;100943.72;;;0.24;96.73
38163;BME280;23977;53.078;18.248;2023-11-21T06:17:11;100820.13;;;-0.56;96.00
38163;BME280;23977;53.078;18.248;2023-11-21T06:19:39;100897.44;;;-0.06;96.55
38163;BME280;23977;53.078;18.248;2023-11-21T06:22:10;100897.22;;;-0.17;96.09
38163;BME280;23977;53.078;18.248;2023-11-21T06:24:47;100824.84;;;-0.63;94.61
38163;BME280;23977;53.078;18.248;2023-11-21T06:27:14;101072.28;;;0.80;94.64
38163;BME280;23977;53.078;18.248;2023-11-21T06:29:41;101093.16;;;0.82;95.12
38163;BME280;23977;53.078;18.248;2023-11-21T06:32:07;100917.28;;;-0.02;95.14
38163;BME280;23977;53.078;18.248;2023-11-21T06:34:36;101078.03;;;1.01;95.20
38163;BME280;23977;53.078;18.248;2023-11-21T06:37:02;100945.84;;;0.17;95.09
38163;BME280;23977;53.078;18.248;2023-11-21T06:39:28;100959.59;;;0.21;95.09
38163;BME280;23977;53.078;18.248;2023-11-21T06:41:53;100967.41;;;0.37;95.02
38163;BME280;23977;53.078;18.248;2023-11-21T06:44:20;100984.13;;;0.34;94.56
38163;BME280;23977;53.078;18.248;2023-11-21T06:46:45;100991.81;;;0.38;93.99
38163;BME280;23977;53.078;18.248;2023-11-21T06:49:11;100937.31;;;-0.16;93.17
38163;BME280;23977;53.078;18.248;2023-11-21T06:51:37;100988.03;;;0.27;92.97
38163;BME280;23977;53.078;18.248;2023-11-21T06:54:03;101002.19;;;0.39;93.02
38163;BME280;23977;53.078;18.248;2023-11-21T06:56:28;100973.97;;;0.14;93.12
38163;BME280;23977;53.078;18.248;2023-11-21T06:58:54;100967.16;;;-0.05;91.76
38163;BME280;23977;53.078;18.248;2023-11-21T07:01:20;101065.38;;;0.63;92.25
38163;BME280;23977;53.078;18.248;2023-11-21T07:03:46;101121.69;;;0.86;93.40
38163;BME280;23977;53.078;18.248;2023-11-21T07:06:12;100991.75;;;0.23;92.80
38163;BME280;23977;53.078;18.248;2023-11-21T07:08:38;101020.59;;;0.38;93.01
38163;BME280;23977;53.078;18.248;2023-11-21T07:11:04;101127.28;;;1.10;91.85
38163;BME280;23977;53.078;18.248;2023-11-21T07:13:31;101090.94;;;0.90;91.73
38163;BME280;23977;53.078;18.248;2023-11-21T07:16:05;100983.47;;;0.31;91.41
38163;BME280;23977;53.078;18.248;2023-11-21T07:18:31;101042.00;;;0.60;90.72
38163;BME280;23977;53.078;18.248;2023-11-21T07:20:58;101013.31;;;0.43;90.79
38163;BME280;23977;53.078;18.248;2023-11-21T07:23:25;101151.38;;;1.17;90.48
38163;BME280;23977;53.078;18.248;2023-11-21T07:25:55;100977.09;;;0.05;89.70
38163;BME280;23977;53.078;18.248;2023-11-21T07:28:21;101036.94;;;0.27;90.06
38163;BME280;23977;53.078;18.248;2023-11-21T07:30:46;101091.69;;;0.62;90.79
38163;BME280;23977;53.078;18.248;2023-11-21T07:33:12;101063.25;;;0.40;90.51
38163;BME280;23977;53.078;18.248;2023-11-21T07:35:39;101064.09;;;0.40;90.60
38163;BME280;23977;53.078;18.248;2023-11-21T07:38:05;101089.09;;;0.46;90.84
38163;BME280;23977;53.078;18.248;2023-11-21T07:40:32;101061.81;;;0.34;90.78
38163;BME280;23977;53.078;18.248;2023-11-21T07:42:58;101075.31;;;0.42;90.98
38163;BME280;23977;53.078;18.248;2023-11-21T07:45:24;101116.00;;;0.64;90.68
38163;BME280;23977;53.078;18.248;2023-11-21T07:47:54;101018.13;;;0.20;90.04
38163;BME280;23977;53.078;18.248;2023-11-21T07:50:21;101125.44;;;0.66;90.08
38163;BME280;23977;53.078;18.248;2023-11-21T07:52:48;101134.09;;;0.68;89.88
38163;BME280;23977;53.078;18.248;2023-11-21T07:55:15;100919.94;;;-0.65;89.72
38163;BME280;23977;53.078;18.248;2023-11-21T07:57:41;100918.44;;;-0.69;90.00
38163;BME280;23977;53.078;18.248;2023-11-21T08:00:07;101073.28;;;0.31;89.26
38163;BME280;23977;53.078;18.248;2023-11-21T08:02:35;101091.94;;;0.57;88.57
38163;BME280;23977;53.078;18.248;2023-11-21T08:05:00;101135.41;;;0.76;88.42
38163;BME280;23977;53.078;18.248;2023-11-21T08:07:26;101115.63;;;0.70;89.19
38163;BME280;23977;53.078;18.248;2023-11-21T08:09:53;101146.88;;;0.89;89.58
38163;BME280;23977;53.078;18.248;2023-11-21T08:12:19;101059.69;;;0.41;88.38
38163;BME280;23977;53.078;18.248;2023-11-21T08:14:45;101146.72;;;0.92;88.78
38163;BME280;23977;53.078;18.248;2023-11-21T08:17:11;101131.69;;;0.80;88.48
38163;BME280;23977;53.078;18.248;2023-11-21T08:19:37;101139.38;;;0.83;88.33
38163;BME280;23977;53.078;18.248;2023-11-21T08:22:04;101068.53;;;0.54;88.24
38163;BME280;23977;53.078;18.248;2023-11-21T08:24:29;101084.13;;;0.71;87.66
38163;BME280;23977;53.078;18.248;2023-11-21T08:26:55;101146.13;;;1.17;86.93
38163;BME280;23977;53.078;18.248;2023-11-21T08:29:22;101185.56;;;1.75;86.95
38163;BME280;23977;53.078;18.248;2023-11-21T08:31:49;101010.91;;;0.84;85.51
38163;BME280;23977;53.078;18.248;2023-11-21T08:34:16;101011.00;;;0.83;85.74
38163;BME280;23977;53.078;18.248;2023-11-21T08:36:43;100943.06;;;0.35;86.51
38163;BME280;23977;53.078;18.248;2023-11-21T08:39:09;101179.09;;;1.80;86.11
38163;BME280;23977;53.078;18.248;2023-11-21T08:41:38;101152.38;;;1.59;85.46
38163;BME280;23977;53.078;18.248;2023-11-21T08:44:03;101142.72;;;1.60;85.19
38163;BME280;23977;53.078;18.248;2023-11-21T08:46:34;101021.66;;;0.80;84.60
38163;BME280;23977;53.078;18.248;2023-11-21T08:49:02;101189.50;;;1.96;84.06
38163;BME280;23977;53.078;18.248;2023-11-21T08:51:32;101122.03;;;1.70;83.40
38163;BME280;23977;53.078;18.248;2023-11-21T08:53:59;101049.63;;;1.38;84.35
38163;BME280;23977;53.078;18.248;2023-11-21T08:56:27;101064.91;;;1.32;83.15
38163;BME280;23977;53.078;18.248;2023-11-21T08:58:54;101144.03;;;1.81;82.38
38163;BME280;23977;53.078;18.248;2023-11-21T09:01:24;101016.97;;;0.70;83.00
38163;BME280;23977;53.078;18.248;2023-11-21T09:03:50;101115.59;;;1.16;83.33
38163;BME280;23977;53.078;18.248;2023-11-21T09:06:16;101152.38;;;1.59;83.56
38163;BME280;23977;53.078;18.248;2023-11-21T09:08:42;101060.91;;;0.96;83.28
38163;BME280;23977;53.078;18.248;2023-11-21T09:11:10;101221.88;;;1.97;83.63
38163;BME280;23977;53.078;18.248;2023-11-21T09:13:39;101222.44;;;2.02;82.90
38163;BME280;23977;53.078;18.248;2023-11-21T09:16:06;101102.44;;;1.32;82.88
38163;BME280;23977;53.078;18.248;2023-11-21T09:18:32;101108.44;;;1.48;83.53
38163;BME280;23977;53.078;18.248;2023-11-21T09:21:00;101080.63;;;1.60;83.29
38163;BME280;23977;53.078;18.248;2023-11-21T09:23:25;101189.00;;;2.33;81.41
38163;BME280;23977;53.078;18.248;2023-11-21T09:25:55;101230.22;;;2.74;80.62
38163;BME280;23977;53.078;18.248;2023-11-21T09:28:22;101135.59;;;1.76;81.15
38163;BME280;23977;53.078;18.248;2023-11-21T09:30:53;101161.28;;;2.14;81.93
38163;BME280;23977;53.078;18.248;2023-11-21T09:33:19;101177.06;;;2.00;82.64
38163;BME280;23977;53.078;18.248;2023-11-21T09:35:45;101116.41;;;1.47;82.96
38163;BME280;23977;53.078;18.248;2023-11-21T09:38:10;101158.19;;;1.50;82.04
38163;BME280;23977;53.078;18.248;2023-11-21T09:40:37;101142.38;;;1.21;82.14
38163;BME280;23977;53.078;18.248;2023-11-21T09:43:09;101177.91;;;1.27;83.49
38163;BME280;23977;53.078;18.248;2023-11-21T09:45:46;101028.19;;;0.42;81.75
38163;BME280;23977;53.078;18.248;2023-11-21T09:48:14;101063.47;;;0.67;81.99
38163;BME280;23977;53.078;18.248;2023-11-21T09:50:42;101117.91;;;1.06;82.71
38163;BME280;23977;53.078;18.248;2023-11-21T09:53:17;101257.94;;;2.08;82.51
38163;BME280;23977;53.078;18.248;2023-11-21T09:55:45;101254.47;;;1.93;83.17
38163;BME280;23977;53.078;18.248;2023-11-21T09:58:13;101119.03;;;1.02;83.03
38163;BME280;23977;53.078;18.248;2023-11-21T10:00:43;101205.91;;;1.85;84.28
38163;BME280;23977;53.078;18.248;2023-11-21T10:03:12;101241.63;;;2.31;82.40
38163;BME280;23977;53.078;18.248;2023-11-21T10:05:40;101208.75;;;1.97;81.47
38163;BME280;23977;53.078;18.248;2023-11-21T10:08:08;101258.53;;;2.42;82.01
38163;BME280;23977;53.078;18.248;2023-11-21T10:10:36;101219.41;;;2.08;81.23
38163;BME280;23977;53.078;18.248;2023-11-21T10:13:05;101254.75;;;2.31;82.73
38163;BME280;23977;53.078;18.248;2023-11-21T10:15:34;101068.72;;;1.26;81.80
38163;BME280;23977;53.078;18.248;2023-11-21T10:18:02;101205.44;;;2.08;81.56
38163;BME280;23977;53.078;18.248;2023-11-21T10:20:31;101183.22;;;1.84;82.05
38163;BME280;23977;53.078;18.248;2023-11-21T10:22:59;101123.97;;;1.37;81.63
38163;BME280;23977;53.078;18.248;2023-11-21T10:25:30;101181.00;;;1.78;81.83
38163;BME280;23977;53.078;18.248;2023-11-21T10:28:02;101167.41;;;1.72;80.85
38163;BME280;23977;53.078;18.248;2023-11-21T10:30:36;101126.13;;;1.31;81.80
38163;BME280;23977;53.078;18.248;2023-11-21T10:33:03;101244.63;;;1.96;81.54
38163;BME280;23977;53.078;18.248;2023-11-21T10:35:46;101182.97;;;1.44;81.72
38163;BME280;23977;53.078;18.248;2023-11-21T10:38:21;101166.84;;;1.36;80.97
38163;BME280;23977;53.078;18.248;2023-11-21T10:40:49;101234.53;;;1.45;81.79
38163;BME280;23977;53.078;18.248;2023-11-21T10:43:15;101285.34;;;1.73;81.96
38163;BME280;23977;53.078;18.248;2023-11-21T10:45:45;101298.03;;;1.81;82.06
38163;BME280;23977;53.078;18.248;2023-11-21T10:48:14;101245.81;;;1.62;81.39
38163;BME280;23977;53.078;18.248;2023-11-21T10:50:44;101154.66;;;1.21;81.04
38163;BME280;23977;53.078;18.248;2023-11-21T10:53:10;101139.25;;;1.00;81.55
38163;BME280;23977;53.078;18.248;2023-11-21T10:55:37;101198.41;;;1.35;81.76
38163;BME280;23977;53.078;18.248;2023-11-21T10:58:03;101283.91;;;1.98;81.63
38163;BME280;23977;53.078;18.248;2023-11-21T11:00:32;101151.25;;;1.04;81.45
38163;BME280;23977;53.078;18.248;2023-11-21T11:02:58;101154.41;;;1.25;82.00
38163;BME280;23977;53.078;18.248;2023-11-21T11:05:26;101215.91;;;1.64;81.85
38163;BME280;23977;53.078;18.248;2023-11-21T11:08:00;101276.59;;;2.03;81.83
38163;BME280;23977;53.078;18.248;2023-11-21T11:10:28;101209.84;;;1.78;82.01
38163;BME280;23977;53.078;18.248;2023-11-21T11:12:58;101207.97;;;1.80;80.96
38163;BME280;23977;53.078;18.248;2023-11-21T11:15:25;101152.13;;;1.19;81.41
38163;BME280;23977;53.078;18.248;2023-11-21T11:17:52;101293.66;;;1.96;80.94
38163;BME280;23977;53.078;18.248;2023-11-21T11:20:27;101287.19;;;2.01;81.50
38163;BME280;23977;53.078;18.248;2023-11-21T11:43:58;101086.63;;;0.59;80.90
38163;BME280;23977;53.078;18.248;2023-11-21T11:47:13;101282.03;;;1.85;81.60
38163;BME280;23977;53.078;18.248;2023-11-21T12:11:06;101195.69;;;1.22;78.58
38163;BME280;23977;53.078;18.248;2023-11-21T12:13:45;101283.47;;;1.61;80.08
38163;BME280;23977;53.078;18.248;2023-11-21T12:18:53;101112.22;;;0.53;79.67
38163;BME280;23977;53.078;18.248;2023-11-21T12:21:27;101209.63;;;1.22;79.63
38163;BME280;23977;53.078;18.248;2023-11-21T12:54:08;101374.84;;;2.44;80.33
38163;BME280;23977;53.078;18.248;2023-11-21T21:56:44;101886.13;;;-2.92;81.41
38163;BME280;23977;53.078;18.248;2023-11-21T21:59:55;102129.00;;;-1.34;82.16
38163;BME280;23977;53.078;18.248;2023-11-21T22:32:11;101983.06;;;-2.81;83.43
38163;BME280;23977;53.078;18.248;2023-11-21T22:35:06;101904.94;;;-3.44;83.72
38163;BME280;23977;53.078;18.248;2023-11-21T22:37:52;101944.47;;;-3.29;84.19
38163;BME280;23977;53.078;18.248;2023-11-21T22:40:41;102189.34;;;-2.01;85.10
38163;BME280;23977;53.078;18.248;2023-11-21T22:43:28;101928.19;;;-3.38;84.71
38163;BME280;23977;53.078;18.248;2023-11-21T22:46:20;102200.84;;;-1.78;84.59
38163;BME280;23977;53.078;18.248;2023-11-21T22:57:03;102196.31;;;-2.01;86.35
38163;BME280;23977;53.078;18.248;2023-11-21T22:59:46;102148.38;;;-2.29;87.46
38163;BME280;23977;53.078;18.248;2023-11-21T23:02:50;102004.09;;;-3.22;87.36
38163;BME280;23977;53.078;18.248;2023-11-21T23:05:35;101915.41;;;-3.80;87.38
38163;BME280;23977;53.078;18.248;2023-11-21T23:08:18;101991.38;;;-3.32;87.86
38163;BME280;23977;53.078;18.248;2023-11-21T23:10:56;101934.16;;;-3.67;88.77
38163;BME280;23977;53.078;18.248;2023-11-21T23:13:43;102004.41;;;-3.32;89.24
38163;BME280;23977;53.078;18.248;2023-11-21T23:16:26;102127.88;;;-2.74;89.56
38163;BME280;23977;53.078;18.248;2023-11-21T23:19:08;101916.03;;;-4.04;89.58
38163;BME280;23977;53.078;18.248;2023-11-21T23:22:05;101955.00;;;-3.68;89.94
38163;BME280;23977;53.078;18.248;2023-11-21T23:24:44;101930.66;;;-4.00;89.98
38163;BME280;23977;53.078;18.248;2023-11-21T23:27:46;101925.34;;;-3.96;89.64
38163;BME280;23977;53.078;18.248;2023-11-21T23:30:54;101929.06;;;-4.06;90.00
38163;BME280;23977;53.078;18.248;2023-11-21T23:34:11;102143.56;;;-2.75;90.38
38163;BME280;23977;53.078;18.248;2023-11-21T23:36:58;101933.91;;;-3.92;90.01
38163;BME280;23977;53.078;18.248;2023-11-21T23:39:30;102100.97;;;-3.07;90.10
38163;BME280;23977;53.078;18.248;2023-11-21T23:42:12;102040.25;;;-3.44;91.06
38163;BME280;23977;53.078;18.248;2023-11-21T23:45:05;102044.13;;;-3.24;90.54
38163;BME280;23977;53.078;18.248;2023-11-21T23:51:42;102186.53;;;-2.57;91.21
38163;BME280;23977;53.078;18.248;2023-11-21T23:54:24;101963.66;;;-4.02;90.36
38163;BME280;23977;53.078;18.248;2023-11-21T23:57:21;101987.94;;;-4.03;91.26